Time;durP1;ratioP1;P1;durP2;ratioP2;P2;SDS_P1;SDS_P2;PMS_P1;PMS_P2;Temp;Humidity;BMP_temperature;BMP_pressure;BME280_temperature;BME280_humidity;BME280_pressure;Samples;Min_cycle;Max_cycle;Signal;HPM_P1;HPM_P2
2021/12/25 00:02:36;;;;;;;0.35;0.20;;;12.30;53.50;;;;;;20790677;28;20041;-75
2021/12/25 00:12:36;;;;;;;2.05;0.20;;;12.30;53.60;;;;;;20788785;28;20033;-75
2021/12/25 00:22:37;;;;;;;0.25;0.13;;;12.30;53.60;;;;;;20804932;28;20029;-75
2021/12/25 00:32:55;;;;;;;0.47;0.20;;;12.30;53.60;;;;;;20805729;28;20120;-74
2021/12/25 00:42:56;;;;;;;0.38;0.30;;;12.20;53.50;;;;;;20791901;28;20302;-75
2021/12/25 00:52:56;;;;;;;1.52;0.50;;;12.20;53.50;;;;;;20818560;28;20536;-75
2021/12/25 01:02:57;;;;;;;0.20;0.10;;;12.20;53.50;;;;;;20802178;28;20373;-77
2021/12/25 01:13:12;;;;;;;0.50;0.30;;;12.20;53.40;;;;;;20801193;28;20056;-74
2021/12/25 01:23:50;;;;;;;0.73;0.20;;;12.20;53.40;;;;;;20803834;28;20060;-75
2021/12/25 01:34:21;;;;;;;0.38;0.22;;;12.10;53.30;;;;;;20810897;28;20037;-75
2021/12/25 01:55:24;;;;;;;0.20;0.17;;;12.10;53.20;;;;;;20808112;28;20042;-75
2021/12/25 02:05:25;;;;;;;0.30;0.20;;;12.10;53.10;;;;;;20780658;28;20390;-74
2021/12/25 02:15:27;;;;;;;0.47;0.30;;;12.10;53.10;;;;;;20797081;28;20042;-74
2021/12/25 02:25:44;;;;;;;0.22;0.17;;;12.10;52.90;;;;;;20830333;28;20295;-74
2021/12/25 02:35:44;;;;;;;0.20;0.20;;;12.00;52.80;;;;;;20812413;28;20041;-74
2021/12/25 02:45:45;;;;;;;1.08;0.30;;;12.10;52.80;;;;;;20810799;28;20483;-74
2021/12/25 02:55:46;;;;;;;0.20;0.20;;;12.00;52.60;;;;;;20777913;28;20061;-74
2021/12/25 03:05:49;;;;;;;0.75;0.20;;;12.00;52.50;;;;;;20779197;28;20124;-75
2021/12/25 03:15:51;;;;;;;0.17;0.15;;;12.00;53.10;;;;;;20803279;28;20152;-74
2021/12/25 03:25:52;;;;;;;0.45;0.20;;;11.90;52.30;;;;;;20809798;28;20033;-74
2021/12/25 03:35:53;;;;;;;0.65;0.20;;;11.90;52.30;;;;;;20809010;28;20450;-74
2021/12/25 03:45:55;;;;;;;0.90;0.10;;;11.90;52.20;;;;;;20792016;28;20026;-75
2021/12/25 04:06:15;;;;;;;0.20;0.20;;;11.90;52.00;;;;;;20824649;28;20064;-74
2021/12/25 04:16:16;;;;;;;0.60;0.40;;;11.90;51.90;;;;;;20822459;28;20120;-74
2021/12/25 04:26:17;;;;;;;0.10;0.10;;;11.80;51.70;;;;;;20788826;28;20037;-74
2021/12/25 05:07:16;;;;;;;0.10;0.10;;;11.80;51.30;;;;;;20806996;28;20454;-74
2021/12/25 05:17:17;;;;;;;0.73;0.13;;;12.10;50.80;;;;;;20800775;28;20065;-74
2021/12/25 05:27:18;;;;;;;0.50;0.25;;;13.10;48.60;;;;;;20816798;28;20099;-74
2021/12/25 05:37:19;;;;;;;0.30;0.20;;;14.10;46.20;;;;;;20798246;28;20037;-73
2021/12/25 05:47:39;;;;;;;0.17;0.10;;;15.30;43.80;;;;;;20831027;28;20032;-73
2021/12/25 05:58:02;;;;;;;0.20;0.10;;;16.00;42.10;;;;;;20803281;28;20484;-74
2021/12/25 06:08:15;;;;;;;0.20;0.10;;;16.20;41.10;;;;;;20800163;28;20045;-74
2021/12/25 06:18:15;;;;;;;0.20;0.10;;;16.30;40.70;;;;;;20796145;28;20049;-77
2021/12/25 06:28:22;;;;;;;;;;;16.20;40.50;;;;;;20800015;28;20037;-74
2021/12/25 06:38:41;;;;;;;0.70;0.13;;;15.30;41.50;;;;;;20814801;28;19917;-73
2021/12/25 06:48:56;;;;;;;1.33;0.25;;;14.30;43.00;;;;;;20806438;28;20026;-73
2021/12/25 06:59:35;;;;;;;0.30;0.20;;;13.50;44.40;;;;;;20832556;28;20096;-73
2021/12/25 07:09:35;;;;;;;0.85;0.30;;;12.90;45.50;;;;;;20827659;28;20479;-73
2021/12/25 07:19:56;;;;;;;2.22;0.40;;;12.40;46.40;;;;;;20829018;28;20124;-73
2021/12/25 07:30:06;;;;;;;1.42;0.20;;;12.10;47.00;;;;;;20797651;28;20056;-74
2021/12/25 07:40:09;;;;;;;0.70;0.30;;;12.00;47.50;;;;;;20792488;28;20072;-74
2021/12/25 07:50:09;;;;;;;1.02;0.30;;;11.90;47.80;;;;;;20809850;28;20125;-72
2021/12/25 08:00:11;;;;;;;0.22;0.20;;;11.80;48.00;;;;;;20790102;28;20037;-75
2021/12/25 08:10:17;;;;;;;1.05;0.32;;;11.80;48.10;;;;;;20822272;28;20091;-75
2021/12/25 08:20:18;;;;;;;0.50;0.47;;;11.70;48.20;;;;;;20804203;28;20034;-70
2021/12/25 08:30:39;;;;;;;0.95;0.30;;;11.60;48.30;;;;;;20800787;28;20048;-74
2021/12/25 08:40:58;;;;;;;1.85;0.45;;;11.50;48.40;;;;;;20805815;28;20046;-71
2021/12/25 08:50:59;;;;;;;1.80;0.55;;;11.40;48.10;;;;;;20816047;28;20135;-71
2021/12/25 09:01:02;;;;;;;0.60;0.30;;;11.40;48.40;;;;;;20798390;28;20029;-71
2021/12/25 09:11:02;;;;;;;1.95;0.60;;;11.10;48.60;;;;;;20814401;28;20045;-71
2021/12/25 09:21:03;;;;;;;0.70;0.40;;;11.00;49.00;;;;;;20797457;28;20400;-73
2021/12/25 09:31:03;;;;;;;0.93;0.50;;;10.90;49.40;;;;;;20795963;28;20033;-72
2021/12/25 09:41:04;;;;;;;1.20;0.60;;;10.90;49.70;;;;;;20778035;28;20034;-72
2021/12/25 09:51:05;;;;;;;0.67;0.40;;;10.80;49.90;;;;;;20794712;28;20033;-72
2021/12/25 10:01:06;;;;;;;1.00;0.30;;;10.80;50.30;;;;;;20811346;28;20300;-73
2021/12/25 10:11:07;;;;;;;5.03;1.15;;;10.70;50.40;;;;;;20792373;28;20029;-70
2021/12/25 10:21:23;;;;;;;1.25;0.40;;;10.60;50.60;;;;;;20807435;28;20049;-70
2021/12/25 10:31:32;;;;;;;1.80;0.45;;;10.60;50.90;;;;;;20809365;28;20041;-71
2021/12/25 10:41:35;;;;;;;1.00;0.40;;;10.50;51.10;;;;;;20792064;28;20091;-72
2021/12/25 10:51:36;;;;;;;0.30;0.30;;;10.50;51.40;;;;;;20792110;28;20029;-71
2021/12/25 11:01:42;;;;;;;1.65;0.30;;;10.30;51.50;;;;;;20822518;28;20488;-76
2021/12/25 11:11:43;;;;;;;0.93;0.40;;;10.30;51.70;;;;;;20822806;28;20033;-74
2021/12/25 11:21:43;;;;;;;1.17;0.47;;;10.90;50.90;;;;;;20806014;28;20072;-72
2021/12/25 11:31:44;;;;;;;2.00;0.43;;;12.50;48.00;;;;;;21186106;22;20050;-73
2021/12/25 11:41:45;;;;;;;0.45;0.20;;;14.00;44.80;;;;;;20707780;28;20034;-72
2021/12/25 11:51:46;;;;;;;1.38;0.47;;;14.70;43.20;;;;;;20690625;28;20025;-71
2021/12/25 12:01:49;;;;;;;1.65;0.50;;;14.00;43.60;;;;;;20739595;28;20467;-74
2021/12/25 12:11:51;;;;;;;1.15;0.60;;;13.40;44.70;;;;;;20739530;28;20369;-73
2021/12/25 12:22:32;;;;;;;1.25;0.60;;;12.70;45.70;;;;;;20754980;28;20048;-73
2021/12/25 12:32:43;;;;;;;1.92;0.60;;;12.20;46.70;;;;;;20802034;28;20049;-73
2021/12/25 12:42:48;;;;;;;1.30;0.50;;;11.90;47.50;;;;;;20765288;28;20037;-73
2021/12/25 12:52:58;;;;;;;1.52;0.57;;;11.60;48.00;;;;;;20719929;28;20063;-79
2021/12/25 13:02:59;;;;;;;2.40;0.40;;;11.50;48.40;;;;;;20687694;28;20057;-71
2021/12/25 13:13:13;;;;;;;0.95;0.45;;;11.50;48.70;;;;;;20715721;28;20034;-70
2021/12/25 13:23:26;;;;;;;4.68;0.88;;;11.40;48.90;;;;;;20701486;28;20034;-69
2021/12/25 13:33:28;;;;;;;3.38;1.13;;;11.40;48.60;;;;;;20695353;28;20041;-70
2021/12/25 13:43:28;;;;;;;5.50;1.17;;;11.40;48.40;;;;;;20697552;28;20045;-73
2021/12/25 13:53:31;;;;;;;2.17;0.80;;;11.30;47.60;;;;;;20681172;28;20045;-69
2021/12/25 14:03:31;;;;;;;3.70;1.30;;;11.30;47.70;;;;;;20729307;28;20301;-73
2021/12/25 14:13:34;;;;;;;10.43;1.08;;;11.40;47.90;;;;;;20729627;28;20506;-72
2021/12/25 14:23:36;;;;;;;3.42;0.80;;;11.60;47.90;;;;;;20782060;28;20045;-72
2021/12/25 14:33:59;;;;;;;2.55;0.60;;;12.00;47.30;;;;;;20776187;28;20175;-70
2021/12/25 14:43:59;;;;;;;4.55;0.77;;;12.50;46.40;;;;;;20740636;28;20042;-70
2021/12/25 14:54:00;;;;;;;2.35;0.75;;;12.50;46.20;;;;;;20628093;28;20041;-70
2021/12/25 15:04:04;;;;;;;3.60;1.58;;;12.20;46.60;;;;;;20692314;28;20073;-71
2021/12/25 15:14:07;;;;;;;2.05;0.43;;;11.80;47.00;;;;;;20830795;28;20037;-71
2021/12/25 15:24:10;;;;;;;4.35;0.50;;;11.50;47.50;;;;;;20791330;28;20046;-73
2021/12/25 15:34:13;;;;;;;2.08;0.50;;;11.30;47.90;;;;;;20808693;28;20048;-74
2021/12/25 15:44:20;;;;;;;10.68;3.85;;;11.30;48.10;;;;;;20789787;28;20068;-74
2021/12/25 15:54:22;;;;;;;9.00;3.85;;;12.30;46.40;;;;;;20789835;28;20087;-73
2021/12/25 16:04:25;;;;;;;4.25;3.70;;;14.00;43.30;;;;;;20789270;28;20045;-72
2021/12/25 16:14:26;;;;;;;6.38;4.10;;;15.30;40.60;;;;;;20806425;28;20083;-73
2021/12/25 16:24:26;;;;;;;5.43;3.00;;;16.10;39.00;;;;;;20803371;28;20034;-73
2021/12/25 16:34:27;;;;;;;3.10;2.80;;;16.40;38.10;;;;;;20771296;28;20071;-71
2021/12/25 16:44:27;;;;;;;3.35;2.47;;;16.50;37.50;;;;;;20786876;28;20492;-71
2021/12/25 16:54:28;;;;;;;4.70;2.60;;;16.50;37.10;;;;;;20786942;28;20046;-72
2021/12/25 17:04:29;;;;;;;2.90;2.10;;;15.70;37.90;;;;;;20768950;28;20123;-72
2021/12/25 17:14:30;;;;;;;4.10;2.75;;;14.80;39.10;;;;;;20767848;28;20665;-73
2021/12/25 17:24:30;;;;;;;2.30;1.85;;;13.90;40.40;;;;;;20766874;28;20044;-74
2021/12/25 17:34:31;;;;;;;2.20;1.80;;;13.20;42.30;;;;;;20765954;28;20045;-72
2021/12/25 17:44:31;;;;;;;1.60;1.50;;;12.70;42.60;;;;;;20782164;28;20068;-71
2021/12/25 17:54:33;;;;;;;2.88;1.90;;;12.40;43.20;;;;;;20780745;28;20075;-71
2021/12/25 18:04:34;;;;;;;4.85;1.63;;;12.30;43.50;;;;;;20796117;28;20080;-72
2021/12/25 18:14:35;;;;;;;2.25;1.70;;;12.30;43.60;;;;;;20780351;28;20041;-71
2021/12/25 18:24:36;;;;;;;2.00;1.50;;;12.30;43.50;;;;;;20795658;28;20182;-72
2021/12/25 18:34:36;;;;;;;2.42;1.48;;;12.30;43.40;;;;;;20761785;28;20499;-70
2021/12/25 18:44:37;;;;;;;2.33;1.45;;;12.40;43.30;;;;;;20789485;28;20068;-73
2021/12/25 18:54:37;;;;;;;3.38;1.80;;;12.40;43.10;;;;;;20804532;28;20076;-72
2021/12/25 19:04:39;;;;;;;2.40;1.50;;;12.40;43.00;;;;;;20804001;28;20037;-72
2021/12/25 19:14:43;;;;;;;2.33;1.70;;;12.40;42.90;;;;;;20803816;28;20041;-73
2021/12/25 19:24:43;;;;;;;3.22;1.92;;;12.40;42.90;;;;;;20787690;28;20033;-72
2021/12/25 19:34:44;;;;;;;3.08;1.83;;;12.50;43.60;;;;;;20786818;28;20041;-72
2021/12/25 19:44:45;;;;;;;4.70;2.35;;;12.40;42.80;;;;;;20785485;28;20065;-72
2021/12/25 19:54:45;;;;;;;4.10;1.90;;;12.30;42.80;;;;;;20796498;28;20049;-72
2021/12/25 20:04:46;;;;;;;3.58;2.30;;;12.30;42.80;;;;;;20788751;28;20721;-74
2021/12/25 20:14:46;;;;;;;3.28;2.00;;;12.30;42.80;;;;;;20770935;28;20079;-73
2021/12/25 20:24:48;;;;;;;4.38;1.88;;;12.30;42.70;;;;;;20786340;28;20495;-72
2021/12/25 20:34:49;;;;;;;4.07;2.17;;;12.30;42.70;;;;;;20786104;28;20096;-74
2021/12/25 20:54:50;;;;;;;3.75;1.67;;;12.20;42.60;;;;;;20783571;28;20510;-71
2021/12/25 21:04:53;;;;;;;3.00;1.63;;;12.20;42.60;;;;;;20784195;28;20047;-71
2021/12/25 21:14:53;;;;;;;2.60;1.60;;;12.20;42.60;;;;;;20782948;28;20044;-72
2021/12/25 21:24:54;;;;;;;2.83;1.52;;;12.20;42.60;;;;;;20766372;28;20045;-73
2021/12/25 21:34:54;;;;;;;2.72;1.80;;;12.10;42.50;;;;;;20780807;28;20034;-72
2021/12/25 21:44:55;;;;;;;3.00;1.63;;;12.10;42.50;;;;;;20796291;28;20400;-73
2021/12/25 21:54:55;;;;;;;2.42;1.55;;;12.10;42.60;;;;;;20795782;28;20666;-71
2021/12/25 22:04:58;;;;;;;3.25;1.67;;;12.10;42.70;;;;;;20795128;28;20296;-71
2021/12/25 22:14:58;;;;;;;2.05;1.25;;;12.00;42.70;;;;;;20778389;28;20037;-72
2021/12/25 22:24:59;;;;;;;3.30;1.45;;;12.00;42.70;;;;;;20761086;28;20041;-71
2021/12/25 22:34:59;;;;;;;2.72;1.55;;;12.00;42.70;;;;;;20777043;28;20042;-71
2021/12/25 22:45:00;;;;;;;2.72;1.30;;;11.90;42.60;;;;;;20794171;28;20072;-73
2021/12/25 22:55:01;;;;;;;4.20;1.80;;;11.90;42.60;;;;;;20776021;28;20136;-72
2021/12/25 23:05:06;;;;;;;3.47;1.52;;;11.90;42.70;;;;;;20759267;28;20853;-72
2021/12/25 23:15:07;;;;;;;3.45;1.77;;;11.80;42.70;;;;;;20775365;28;20470;-72
2021/12/25 23:25:08;;;;;;;3.20;1.58;;;11.80;42.70;;;;;;20790358;28;20041;-72
2021/12/25 23:35:10;;;;;;;1.70;1.00;;;11.80;42.60;;;;;;20787200;28;20033;-71
2021/12/25 23:45:21;;;;;;;3.30;1.63;;;11.70;42.50;;;;;;20789698;28;20060;-71
2021/12/25 23:55:22;;;;;;;3.45;1.30;;;11.70;42.60;;;;;;20774333;28;20045;-71
